sensor_id;sensor_type;location;lat;lon;timestamp;P1;durP1;ratioP1;P2;durP2;ratioP2
20138;SDS011;10230;51.502;10.800;2022-10-17T00:00:47;4.77;;;1.83;;
20138;SDS011;10230;51.502;10.800;2022-10-17T00:03:13;2.53;;;1.88;;
20138;SDS011;10230;51.502;10.800;2022-10-17T00:05:40;2.72;;;1.70;;
20138;SDS011;10230;51.502;10.800;2022-10-17T00:08:06;4.05;;;2.67;;
20138;SDS011;10230;51.502;10.800;2022-10-17T00:10:32;1.77;;;1.35;;
20138;SDS011;10230;51.502;10.800;2022-10-17T00:12:58;3.45;;;2.13;;
20138;SDS011;10230;51.502;10.800;2022-10-17T00:15:24;5.45;;;3.35;;
20138;SDS011;10230;51.502;10.800;2022-10-17T00:17:50;5.88;;;2.90;;
20138;SDS011;10230;51.502;10.800;2022-10-17T00:20:16;6.20;;;3.47;;
20138;SDS011;10230;51.502;10.800;2022-10-17T00:22:42;5.70;;;2.78;;
20138;SDS011;10230;51.502;10.800;2022-10-17T00:25:08;4.30;;;2.42;;
20138;SDS011;10230;51.502;10.800;2022-10-17T00:27:35;3.10;;;2.17;;
20138;SDS011;10230;51.502;10.800;2022-10-17T00:30:02;6.50;;;2.50;;
20138;SDS011;10230;51.502;10.800;2022-10-17T00:32:28;4.30;;;2.85;;
20138;SDS011;10230;51.502;10.800;2022-10-17T00:34:54;4.95;;;2.60;;
20138;SDS011;10230;51.502;10.800;2022-10-17T00:37:20;4.20;;;3.03;;
20138;SDS011;10230;51.502;10.800;2022-10-17T00:39:46;5.70;;;2.92;;
20138;SDS011;10230;51.502;10.800;2022-10-17T00:42:12;4.00;;;2.75;;
20138;SDS011;10230;51.502;10.800;2022-10-17T00:47:05;4.82;;;3.38;;
20138;SDS011;10230;51.502;10.800;2022-10-17T00:49:34;5.10;;;3.05;;
20138;SDS011;10230;51.502;10.800;2022-10-17T00:52:02;4.13;;;3.00;;
20138;SDS011;10230;51.502;10.800;2022-10-17T00:54:30;4.53;;;2.55;;
20138;SDS011;10230;51.502;10.800;2022-10-17T00:56:57;4.70;;;2.55;;
20138;SDS011;10230;51.502;10.800;2022-10-17T00:59:23;4.55;;;2.70;;
20138;SDS011;10230;51.502;10.800;2022-10-17T01:01:56;3.85;;;2.65;;
20138;SDS011;10230;51.502;10.800;2022-10-17T01:04:24;5.33;;;3.03;;
20138;SDS011;10230;51.502;10.800;2022-10-17T01:06:50;3.70;;;2.57;;
20138;SDS011;10230;51.502;10.800;2022-10-17T01:09:16;3.65;;;2.35;;
20138;SDS011;10230;51.502;10.800;2022-10-17T01:11:49;4.03;;;2.33;;
20138;SDS011;10230;51.502;10.800;2022-10-17T01:16:52;4.80;;;2.60;;
20138;SDS011;10230;51.502;10.800;2022-10-17T01:19:31;3.33;;;2.13;;
20138;SDS011;10230;51.502;10.800;2022-10-17T01:32:48;2.90;;;2.00;;
20138;SDS011;10230;51.502;10.800;2022-10-17T01:38:04;3.77;;;2.47;;
20138;SDS011;10230;51.502;10.800;2022-10-17T01:40:36;4.83;;;3.03;;
20138;SDS011;10230;51.502;10.800;2022-10-17T01:43:06;3.27;;;1.90;;
20138;SDS011;10230;51.502;10.800;2022-10-17T01:45:39;4.43;;;2.30;;
20138;SDS011;10230;51.502;10.800;2022-10-17T01:48:13;2.57;;;1.90;;
20138;SDS011;10230;51.502;10.800;2022-10-17T01:50:42;2.90;;;1.80;;
20138;SDS011;10230;51.502;10.800;2022-10-17T01:53:13;3.45;;;2.10;;
20138;SDS011;10230;51.502;10.800;2022-10-17T01:55:42;2.67;;;1.93;;
20138;SDS011;10230;51.502;10.800;2022-10-17T01:58:24;3.42;;;2.30;;
20138;SDS011;10230;51.502;10.800;2022-10-17T02:00:51;3.57;;;2.20;;
20138;SDS011;10230;51.502;10.800;2022-10-17T02:03:18;4.00;;;2.40;;
20138;SDS011;10230;51.502;10.800;2022-10-17T02:05:45;2.30;;;1.83;;
20138;SDS011;10230;51.502;10.800;2022-10-17T02:08:11;3.55;;;1.85;;
20138;SDS011;10230;51.502;10.800;2022-10-17T02:11:12;2.73;;;2.23;;
20138;SDS011;10230;51.502;10.800;2022-10-17T02:13:46;3.70;;;1.80;;
20138;SDS011;10230;51.502;10.800;2022-10-17T02:16:19;4.37;;;2.10;;
20138;SDS011;10230;51.502;10.800;2022-10-17T02:19:29;11.43;;;3.57;;
20138;SDS011;10230;51.502;10.800;2022-10-17T02:30:19;4.85;;;2.33;;
20138;SDS011;10230;51.502;10.800;2022-10-17T02:32:42;11.57;;;4.07;;
20138;SDS011;10230;51.502;10.800;2022-10-17T02:35:10;4.77;;;2.30;;
20138;SDS011;10230;51.502;10.800;2022-10-17T02:37:38;3.07;;;1.97;;
20138;SDS011;10230;51.502;10.800;2022-10-17T02:40:05;4.07;;;1.98;;
20138;SDS011;10230;51.502;10.800;2022-10-17T02:42:32;3.45;;;1.63;;
20138;SDS011;10230;51.502;10.800;2022-10-17T02:44:59;7.32;;;2.28;;
20138;SDS011;10230;51.502;10.800;2022-10-17T02:47:30;5.27;;;2.00;;
20138;SDS011;10230;51.502;10.800;2022-10-17T02:49:57;4.13;;;2.20;;
20138;SDS011;10230;51.502;10.800;2022-10-17T02:52:26;7.63;;;2.60;;
20138;SDS011;10230;51.502;10.800;2022-10-17T02:54:54;5.23;;;2.33;;
20138;SDS011;10230;51.502;10.800;2022-10-17T02:59:54;5.75;;;2.03;;
20138;SDS011;10230;51.502;10.800;2022-10-17T03:02:20;12.23;;;2.90;;
20138;SDS011;10230;51.502;10.800;2022-10-17T03:04:46;6.37;;;2.50;;
20138;SDS011;10230;51.502;10.800;2022-10-17T03:07:12;9.33;;;3.20;;
20138;SDS011;10230;51.502;10.800;2022-10-17T03:09:38;14.43;;;3.37;;
20138;SDS011;10230;51.502;10.800;2022-10-17T03:12:05;10.93;;;3.63;;
20138;SDS011;10230;51.502;10.800;2022-10-17T03:14:31;5.07;;;2.65;;
20138;SDS011;10230;51.502;10.800;2022-10-17T03:16:57;5.40;;;2.67;;
20138;SDS011;10230;51.502;10.800;2022-10-17T03:19:23;5.17;;;3.30;;
20138;SDS011;10230;51.502;10.800;2022-10-17T03:21:49;5.53;;;2.20;;
20138;SDS011;10230;51.502;10.800;2022-10-17T03:24:15;3.10;;;2.17;;
20138;SDS011;10230;51.502;10.800;2022-10-17T03:26:41;3.07;;;2.60;;
20138;SDS011;10230;51.502;10.800;2022-10-17T03:29:07;5.07;;;2.87;;
20138;SDS011;10230;51.502;10.800;2022-10-17T03:31:33;8.48;;;3.00;;
20138;SDS011;10230;51.502;10.800;2022-10-17T03:34:00;4.43;;;2.25;;
20138;SDS011;10230;51.502;10.800;2022-10-17T03:36:27;3.37;;;2.40;;
20138;SDS011;10230;51.502;10.800;2022-10-17T03:38:53;3.23;;;2.10;;
20138;SDS011;10230;51.502;10.800;2022-10-17T03:41:19;2.97;;;2.40;;
20138;SDS011;10230;51.502;10.800;2022-10-17T03:43:45;2.43;;;1.80;;
20138;SDS011;10230;51.502;10.800;2022-10-17T03:46:11;2.87;;;1.87;;
20138;SDS011;10230;51.502;10.800;2022-10-17T03:48:37;2.20;;;1.60;;
20138;SDS011;10230;51.502;10.800;2022-10-17T03:51:04;2.43;;;1.70;;
20138;SDS011;10230;51.502;10.800;2022-10-17T03:53:30;2.23;;;1.63;;
20138;SDS011;10230;51.502;10.800;2022-10-17T03:56:07;2.40;;;1.30;;
20138;SDS011;10230;51.502;10.800;2022-10-17T03:58:33;1.77;;;1.20;;
20138;SDS011;10230;51.502;10.800;2022-10-17T04:01:03;1.97;;;1.60;;
20138;SDS011;10230;51.502;10.800;2022-10-17T04:03:29;2.73;;;1.97;;
20138;SDS011;10230;51.502;10.800;2022-10-17T04:05:57;2.47;;;1.77;;
20138;SDS011;10230;51.502;10.800;2022-10-17T04:08:23;2.87;;;2.00;;
20138;SDS011;10230;51.502;10.800;2022-10-17T04:10:50;1.80;;;1.60;;
20138;SDS011;10230;51.502;10.800;2022-10-17T04:13:16;3.87;;;2.00;;
20138;SDS011;10230;51.502;10.800;2022-10-17T04:15:52;3.13;;;2.03;;
20138;SDS011;10230;51.502;10.800;2022-10-17T04:18:18;3.75;;;2.33;;
20138;SDS011;10230;51.502;10.800;2022-10-17T04:20:44;3.60;;;1.67;;
20138;SDS011;10230;51.502;10.800;2022-10-17T04:23:10;2.37;;;1.73;;
20138;SDS011;10230;51.502;10.800;2022-10-17T04:25:36;3.63;;;1.70;;
20138;SDS011;10230;51.502;10.800;2022-10-17T04:28:02;4.27;;;1.87;;
20138;SDS011;10230;51.502;10.800;2022-10-17T04:30:28;4.25;;;2.03;;
20138;SDS011;10230;51.502;10.800;2022-10-17T04:32:54;2.70;;;1.67;;
20138;SDS011;10230;51.502;10.800;2022-10-17T04:35:20;3.57;;;1.80;;
20138;SDS011;10230;51.502;10.800;2022-10-17T04:37:46;2.07;;;1.83;;
20138;SDS011;10230;51.502;10.800;2022-10-17T04:40:12;3.23;;;1.93;;
20138;SDS011;10230;51.502;10.800;2022-10-17T04:42:38;2.47;;;1.70;;
20138;SDS011;10230;51.502;10.800;2022-10-17T04:45:04;3.10;;;2.50;;
20138;SDS011;10230;51.502;10.800;2022-10-17T04:47:31;2.80;;;1.77;;
20138;SDS011;10230;51.502;10.800;2022-10-17T04:49:57;2.90;;;2.50;;
20138;SDS011;10230;51.502;10.800;2022-10-17T04:52:23;2.20;;;1.90;;
20138;SDS011;10230;51.502;10.800;2022-10-17T04:54:49;1.70;;;1.60;;
20138;SDS011;10230;51.502;10.800;2022-10-17T04:57:15;6.00;;;2.30;;
20138;SDS011;10230;51.502;10.800;2022-10-17T04:59:42;2.60;;;2.00;;
20138;SDS011;10230;51.502;10.800;2022-10-17T05:02:08;2.40;;;1.73;;
20138;SDS011;10230;51.502;10.800;2022-10-17T05:04:34;2.67;;;1.90;;
20138;SDS011;10230;51.502;10.800;2022-10-17T05:07:00;2.10;;;1.70;;
20138;SDS011;10230;51.502;10.800;2022-10-17T05:09:27;2.83;;;2.17;;
20138;SDS011;10230;51.502;10.800;2022-10-17T05:11:53;2.57;;;1.83;;
20138;SDS011;10230;51.502;10.800;2022-10-17T05:14:19;3.50;;;1.80;;
20138;SDS011;10230;51.502;10.800;2022-10-17T05:16:45;1.87;;;1.50;;
20138;SDS011;10230;51.502;10.800;2022-10-17T05:19:11;2.53;;;1.63;;
20138;SDS011;10230;51.502;10.800;2022-10-17T05:21:37;4.47;;;2.00;;
20138;SDS011;10230;51.502;10.800;2022-10-17T05:24:04;2.73;;;1.80;;
20138;SDS011;10230;51.502;10.800;2022-10-17T05:26:30;4.37;;;2.40;;
20138;SDS011;10230;51.502;10.800;2022-10-17T05:28:58;3.07;;;2.10;;
20138;SDS011;10230;51.502;10.800;2022-10-17T05:31:24;2.90;;;2.00;;
20138;SDS011;10230;51.502;10.800;2022-10-17T05:33:50;3.10;;;2.10;;
20138;SDS011;10230;51.502;10.800;2022-10-17T05:36:16;2.73;;;2.07;;
20138;SDS011;10230;51.502;10.800;2022-10-17T05:38:42;2.40;;;1.50;;
20138;SDS011;10230;51.502;10.800;2022-10-17T05:41:08;2.80;;;2.07;;
20138;SDS011;10230;51.502;10.800;2022-10-17T05:43:34;3.80;;;2.23;;
20138;SDS011;10230;51.502;10.800;2022-10-17T05:46:04;2.30;;;1.67;;
20138;SDS011;10230;51.502;10.800;2022-10-17T05:48:30;3.33;;;2.03;;
20138;SDS011;10230;51.502;10.800;2022-10-17T05:50:57;3.43;;;2.23;;
20138;SDS011;10230;51.502;10.800;2022-10-17T05:53:24;4.73;;;3.10;;
20138;SDS011;10230;51.502;10.800;2022-10-17T05:56:00;14.63;;;4.93;;
20138;SDS011;10230;51.502;10.800;2022-10-17T05:58:26;5.30;;;2.60;;
20138;SDS011;10230;51.502;10.800;2022-10-17T06:00:59;4.00;;;2.03;;
20138;SDS011;10230;51.502;10.800;2022-10-17T06:03:26;3.37;;;2.17;;
20138;SDS011;10230;51.502;10.800;2022-10-17T06:05:52;5.80;;;1.90;;
20138;SDS011;10230;51.502;10.800;2022-10-17T06:08:18;4.37;;;2.00;;
20138;SDS011;10230;51.502;10.800;2022-10-17T06:10:48;3.10;;;1.97;;
20138;SDS011;10230;51.502;10.800;2022-10-17T06:13:17;3.08;;;1.60;;
20138;SDS011;10230;51.502;10.800;2022-10-17T06:15:43;3.83;;;2.45;;
20138;SDS011;10230;51.502;10.800;2022-10-17T06:18:09;7.10;;;4.55;;
20138;SDS011;10230;51.502;10.800;2022-10-17T06:20:36;7.37;;;2.83;;
20138;SDS011;10230;51.502;10.800;2022-10-17T06:23:02;4.57;;;2.60;;
20138;SDS011;10230;51.502;10.800;2022-10-17T06:25:32;4.45;;;2.00;;
20138;SDS011;10230;51.502;10.800;2022-10-17T06:27:58;2.22;;;1.88;;
20138;SDS011;10230;51.502;10.800;2022-10-17T06:30:24;5.20;;;3.05;;
20138;SDS011;10230;51.502;10.800;2022-10-17T06:32:50;9.23;;;3.13;;
20138;SDS011;10230;51.502;10.800;2022-10-17T06:35:16;7.90;;;4.15;;
20138;SDS011;10230;51.502;10.800;2022-10-17T06:37:42;10.88;;;3.40;;
20138;SDS011;10230;51.502;10.800;2022-10-17T06:40:08;10.77;;;3.65;;
20138;SDS011;10230;51.502;10.800;2022-10-17T06:42:36;5.72;;;2.35;;
20138;SDS011;10230;51.502;10.800;2022-10-17T06:45:02;13.07;;;3.42;;
20138;SDS011;10230;51.502;10.800;2022-10-17T06:47:28;12.98;;;6.32;;
20138;SDS011;10230;51.502;10.800;2022-10-17T06:49:54;4.50;;;3.22;;
20138;SDS011;10230;51.502;10.800;2022-10-17T06:52:20;7.10;;;3.85;;
20138;SDS011;10230;51.502;10.800;2022-10-17T06:54:46;4.68;;;2.95;;
20138;SDS011;10230;51.502;10.800;2022-10-17T06:57:12;6.05;;;3.30;;
20138;SDS011;10230;51.502;10.800;2022-10-17T06:59:38;9.77;;;5.35;;
20138;SDS011;10230;51.502;10.800;2022-10-17T07:02:05;11.88;;;7.22;;
20138;SDS011;10230;51.502;10.800;2022-10-17T07:04:32;11.52;;;5.63;;
20138;SDS011;10230;51.502;10.800;2022-10-17T07:06:58;14.23;;;5.03;;
20138;SDS011;10230;51.502;10.800;2022-10-17T07:09:27;7.68;;;4.72;;
20138;SDS011;10230;51.502;10.800;2022-10-17T07:11:53;8.02;;;3.08;;
20138;SDS011;10230;51.502;10.800;2022-10-17T07:14:19;3.95;;;2.63;;
20138;SDS011;10230;51.502;10.800;2022-10-17T07:16:45;3.13;;;2.03;;
20138;SDS011;10230;51.502;10.800;2022-10-17T07:19:11;2.90;;;1.70;;
20138;SDS011;10230;51.502;10.800;2022-10-17T07:21:37;3.65;;;1.85;;
20138;SDS011;10230;51.502;10.800;2022-10-17T07:24:03;3.00;;;1.92;;
20138;SDS011;10230;51.502;10.800;2022-10-17T07:26:30;5.90;;;2.17;;
20138;SDS011;10230;51.502;10.800;2022-10-17T07:28:56;5.38;;;2.60;;
20138;SDS011;10230;51.502;10.800;2022-10-17T07:31:22;5.47;;;3.00;;
20138;SDS011;10230;51.502;10.800;2022-10-17T07:33:48;8.80;;;3.17;;
20138;SDS011;10230;51.502;10.800;2022-10-17T07:36:15;6.88;;;3.40;;
20138;SDS011;10230;51.502;10.800;2022-10-17T07:38:41;6.05;;;2.78;;
20138;SDS011;10230;51.502;10.800;2022-10-17T07:41:07;3.60;;;2.60;;
20138;SDS011;10230;51.502;10.800;2022-10-17T07:43:34;3.40;;;1.88;;
20138;SDS011;10230;51.502;10.800;2022-10-17T07:46:01;5.38;;;3.80;;
20138;SDS011;10230;51.502;10.800;2022-10-17T07:48:28;3.35;;;2.10;;
20138;SDS011;10230;51.502;10.800;2022-10-17T07:50:54;2.92;;;1.42;;
20138;SDS011;10230;51.502;10.800;2022-10-17T07:53:20;3.90;;;2.17;;
20138;SDS011;10230;51.502;10.800;2022-10-17T07:55:46;2.42;;;1.67;;
20138;SDS011;10230;51.502;10.800;2022-10-17T07:58:13;2.78;;;1.88;;
20138;SDS011;10230;51.502;10.800;2022-10-17T08:00:39;4.18;;;1.75;;
20138;SDS011;10230;51.502;10.800;2022-10-17T08:03:05;2.28;;;2.08;;
20138;SDS011;10230;51.502;10.800;2022-10-17T08:05:31;3.17;;;1.70;;
20138;SDS011;10230;51.502;10.800;2022-10-17T08:07:57;2.05;;;1.63;;
20138;SDS011;10230;51.502;10.800;2022-10-17T08:10:23;3.40;;;1.90;;
20138;SDS011;10230;51.502;10.800;2022-10-17T08:12:52;3.30;;;2.42;;
20138;SDS011;10230;51.502;10.800;2022-10-17T08:29:52;4.32;;;1.80;;
20138;SDS011;10230;51.502;10.800;2022-10-17T08:32:19;2.80;;;1.50;;
20138;SDS011;10230;51.502;10.800;2022-10-17T08:34:46;5.15;;;4.65;;
20138;SDS011;10230;51.502;10.800;2022-10-17T08:37:12;2.35;;;1.60;;
20138;SDS011;10230;51.502;10.800;2022-10-17T08:39:39;3.85;;;1.70;;
20138;SDS011;10230;51.502;10.800;2022-10-17T08:42:26;2.10;;;1.20;;
20138;SDS011;10230;51.502;10.800;2022-10-17T08:45:11;1.70;;;1.30;;
20138;SDS011;10230;51.502;10.800;2022-10-17T09:23:56;1.70;;;1.58;;
20138;SDS011;10230;51.502;10.800;2022-10-17T09:26:22;1.20;;;0.98;;
20138;SDS011;10230;51.502;10.800;2022-10-17T09:28:52;1.35;;;1.15;;
20138;SDS011;10230;51.502;10.800;2022-10-17T09:33:56;1.33;;;1.10;;
20138;SDS011;10230;51.502;10.800;2022-10-17T09:36:29;4.22;;;1.40;;
20138;SDS011;10230;51.502;10.800;2022-10-17T09:39:01;1.70;;;1.10;;
20138;SDS011;10230;51.502;10.800;2022-10-17T09:41:38;2.13;;;1.38;;
20138;SDS011;10230;51.502;10.800;2022-10-17T09:44:20;3.70;;;1.27;;
20138;SDS011;10230;51.502;10.800;2022-10-17T10:16:59;2.33;;;1.17;;
20138;SDS011;10230;51.502;10.800;2022-10-17T10:19:34;1.30;;;1.20;;
20138;SDS011;10230;51.502;10.800;2022-10-17T10:22:17;1.15;;;0.98;;
20138;SDS011;10230;51.502;10.800;2022-10-17T10:24:43;1.75;;;1.17;;
20138;SDS011;10230;51.502;10.800;2022-10-17T10:39:48;1.77;;;1.17;;
20138;SDS011;10230;51.502;10.800;2022-10-17T10:42:29;2.63;;;1.10;;
20138;SDS011;10230;51.502;10.800;2022-10-17T10:45:15;2.00;;;0.90;;
20138;SDS011;10230;51.502;10.800;2022-10-17T10:47:51;1.33;;;0.98;;
20138;SDS011;10230;51.502;10.800;2022-10-17T11:50:48;1.15;;;0.60;;
20138;SDS011;10230;51.502;10.800;2022-10-17T11:52:50;2.10;;;1.10;;
20138;SDS011;10230;51.502;10.800;2022-10-17T11:55:21;3.97;;;1.05;;
20138;SDS011;10230;51.502;10.800;2022-10-17T12:05:18;1.05;;;0.80;;
20138;SDS011;10230;51.502;10.800;2022-10-17T12:07:51;1.05;;;0.70;;
20138;SDS011;10230;51.502;10.800;2022-10-17T12:17:43;1.42;;;0.90;;
20138;SDS011;10230;51.502;10.800;2022-10-17T12:22:48;0.60;;;0.60;;
20138;SDS011;10230;51.502;10.800;2022-10-17T12:27:47;1.58;;;0.98;;
20138;SDS011;10230;51.502;10.800;2022-10-17T12:30:15;2.72;;;0.80;;
20138;SDS011;10230;51.502;10.800;2022-10-17T12:32:55;3.80;;;1.42;;
20138;SDS011;10230;51.502;10.800;2022-10-17T12:35:22;3.08;;;1.10;;
20138;SDS011;10230;51.502;10.800;2022-10-17T12:50:02;1.75;;;0.80;;
20138;SDS011;10230;51.502;10.800;2022-10-17T12:57:33;2.67;;;0.85;;
20138;SDS011;10230;51.502;10.800;2022-10-17T13:04:55;3.08;;;0.80;;
20138;SDS011;10230;51.502;10.800;2022-10-17T13:07:22;1.90;;;0.88;;
20138;SDS011;10230;51.502;10.800;2022-10-17T13:09:49;2.28;;;1.20;;
20138;SDS011;10230;51.502;10.800;2022-10-17T13:12:18;3.40;;;0.93;;
20138;SDS011;10230;51.502;10.800;2022-10-17T13:14:45;3.65;;;1.05;;
20138;SDS011;10230;51.502;10.800;2022-10-17T13:17:32;3.65;;;0.90;;
20138;SDS011;10230;51.502;10.800;2022-10-17T13:19:58;4.03;;;0.90;;
20138;SDS011;10230;51.502;10.800;2022-10-17T13:22:28;2.90;;;0.98;;
20138;SDS011;10230;51.502;10.800;2022-10-17T13:25:05;1.15;;;0.88;;
20138;SDS011;10230;51.502;10.800;2022-10-17T13:27:33;3.53;;;1.17;;
20138;SDS011;10230;51.502;10.800;2022-10-17T13:30:00;5.10;;;0.88;;
20138;SDS011;10230;51.502;10.800;2022-10-17T13:32:33;2.15;;;0.77;;
20138;SDS011;10230;51.502;10.800;2022-10-17T13:35:13;0.85;;;0.80;;
20138;SDS011;10230;51.502;10.800;2022-10-17T13:37:41;1.50;;;0.70;;
20138;SDS011;10230;51.502;10.800;2022-10-17T13:40:15;2.60;;;1.67;;
20138;SDS011;10230;51.502;10.800;2022-10-17T13:42:41;1.50;;;0.93;;
20138;SDS011;10230;51.502;10.800;2022-10-17T13:47:52;8.75;;;1.00;;
20138;SDS011;10230;51.502;10.800;2022-10-17T13:50:24;8.50;;;1.15;;
20138;SDS011;10230;51.502;10.800;2022-10-17T13:55:32;1.95;;;1.20;;
20138;SDS011;10230;51.502;10.800;2022-10-17T13:58:14;1.00;;;0.90;;
20138;SDS011;10230;51.502;10.800;2022-10-17T14:00:40;1.35;;;0.80;;
20138;SDS011;10230;51.502;10.800;2022-10-17T14:03:06;2.85;;;1.02;;
20138;SDS011;10230;51.502;10.800;2022-10-17T14:05:33;3.78;;;1.27;;
20138;SDS011;10230;51.502;10.800;2022-10-17T14:08:00;2.78;;;1.02;;
20138;SDS011;10230;51.502;10.800;2022-10-17T14:10:31;2.17;;;0.93;;
20138;SDS011;10230;51.502;10.800;2022-10-17T14:12:57;6.68;;;1.20;;
20138;SDS011;10230;51.502;10.800;2022-10-17T14:15:26;1.58;;;0.98;;
20138;SDS011;10230;51.502;10.800;2022-10-17T14:17:53;3.63;;;0.90;;
20138;SDS011;10230;51.502;10.800;2022-10-17T14:20:21;1.67;;;0.57;;
20138;SDS011;10230;51.502;10.800;2022-10-17T14:22:48;3.75;;;1.35;;
20138;SDS011;10230;51.502;10.800;2022-10-17T14:33:06;7.63;;;1.15;;
20138;SDS011;10230;51.502;10.800;2022-10-17T14:35:32;3.25;;;1.15;;
20138;SDS011;10230;51.502;10.800;2022-10-17T14:38:02;2.35;;;1.00;;
20138;SDS011;10230;51.502;10.800;2022-10-17T14:40:29;2.42;;;1.08;;
20138;SDS011;10230;51.502;10.800;2022-10-17T14:42:57;4.10;;;1.10;;
20138;SDS011;10230;51.502;10.800;2022-10-17T14:45:30;2.00;;;1.08;;
20138;SDS011;10230;51.502;10.800;2022-10-17T14:48:02;3.25;;;1.40;;
20138;SDS011;10230;51.502;10.800;2022-10-17T14:50:29;4.57;;;1.52;;
20138;SDS011;10230;51.502;10.800;2022-10-17T14:53:06;2.15;;;1.17;;
20138;SDS011;10230;51.502;10.800;2022-10-17T14:55:53;2.80;;;1.33;;
20138;SDS011;10230;51.502;10.800;2022-10-17T14:58:26;3.22;;;1.67;;
20138;SDS011;10230;51.502;10.800;2022-10-17T15:00:52;4.22;;;1.80;;
20138;SDS011;10230;51.502;10.800;2022-10-17T15:03:18;2.75;;;1.30;;
20138;SDS011;10230;51.502;10.800;2022-10-17T15:05:45;2.63;;;1.38;;
20138;SDS011;10230;51.502;10.800;2022-10-17T15:08:14;1.85;;;0.80;;
20138;SDS011;10230;51.502;10.800;2022-10-17T15:10:41;4.55;;;0.90;;
20138;SDS011;10230;51.502;10.800;2022-10-17T15:13:08;2.15;;;1.02;;
20138;SDS011;10230;51.502;10.800;2022-10-17T15:15:34;1.23;;;1.13;;
20138;SDS011;10230;51.502;10.800;2022-10-17T15:18:01;6.43;;;2.05;;
20138;SDS011;10230;51.502;10.800;2022-10-17T15:20:27;3.25;;;1.48;;
20138;SDS011;10230;51.502;10.800;2022-10-17T15:22:54;2.92;;;1.92;;
20138;SDS011;10230;51.502;10.800;2022-10-17T15:25:21;3.40;;;1.60;;
20138;SDS011;10230;51.502;10.800;2022-10-17T15:27:47;3.50;;;1.25;;
20138;SDS011;10230;51.502;10.800;2022-10-17T15:30:34;2.03;;;1.27;;
20138;SDS011;10230;51.502;10.800;2022-10-17T15:32:59;3.95;;;1.00;;
20138;SDS011;10230;51.502;10.800;2022-10-17T15:35:25;1.75;;;0.93;;
20138;SDS011;10230;51.502;10.800;2022-10-17T15:37:52;2.63;;;1.00;;
20138;SDS011;10230;51.502;10.800;2022-10-17T15:40:19;1.65;;;1.42;;
20138;SDS011;10230;51.502;10.800;2022-10-17T15:42:46;6.18;;;1.75;;
20138;SDS011;10230;51.502;10.800;2022-10-17T15:45:12;3.05;;;1.20;;
20138;SDS011;10230;51.502;10.800;2022-10-17T15:47:40;10.45;;;2.35;;
20138;SDS011;10230;51.502;10.800;2022-10-17T15:50:06;2.25;;;2.03;;
20138;SDS011;10230;51.502;10.800;2022-10-17T15:52:33;3.42;;;1.15;;
20138;SDS011;10230;51.502;10.800;2022-10-17T15:55:00;1.38;;;1.20;;
20138;SDS011;10230;51.502;10.800;2022-10-17T15:57:27;3.53;;;1.33;;
20138;SDS011;10230;51.502;10.800;2022-10-17T15:59:53;2.40;;;1.48;;
20138;SDS011;10230;51.502;10.800;2022-10-17T16:02:21;3.33;;;1.58;;
20138;SDS011;10230;51.502;10.800;2022-10-17T16:04:47;3.22;;;1.38;;
20138;SDS011;10230;51.502;10.800;2022-10-17T16:07:14;3.58;;;1.80;;
20138;SDS011;10230;51.502;10.800;2022-10-17T16:09:40;1.95;;;1.73;;
20138;SDS011;10230;51.502;10.800;2022-10-17T16:12:10;4.53;;;2.22;;
20138;SDS011;10230;51.502;10.800;2022-10-17T16:14:38;3.95;;;1.70;;
20138;SDS011;10230;51.502;10.800;2022-10-17T16:17:04;3.80;;;1.95;;
20138;SDS011;10230;51.502;10.800;2022-10-17T16:19:30;2.67;;;1.88;;
20138;SDS011;10230;51.502;10.800;2022-10-17T16:21:56;5.95;;;3.00;;
20138;SDS011;10230;51.502;10.800;2022-10-17T16:24:25;7.63;;;2.63;;
20138;SDS011;10230;51.502;10.800;2022-10-17T16:26:51;8.15;;;2.60;;
20138;SDS011;10230;51.502;10.800;2022-10-17T16:29:16;4.57;;;2.33;;
20138;SDS011;10230;51.502;10.800;2022-10-17T16:31:43;6.90;;;3.22;;
20138;SDS011;10230;51.502;10.800;2022-10-17T16:34:10;5.47;;;2.30;;
20138;SDS011;10230;51.502;10.800;2022-10-17T16:36:37;11.05;;;2.50;;
20138;SDS011;10230;51.502;10.800;2022-10-17T16:39:04;9.35;;;4.00;;
20138;SDS011;10230;51.502;10.800;2022-10-17T16:41:31;5.70;;;3.40;;
20138;SDS011;10230;51.502;10.800;2022-10-17T16:43:58;7.22;;;2.22;;
20138;SDS011;10230;51.502;10.800;2022-10-17T16:46:25;3.75;;;2.15;;
20138;SDS011;10230;51.502;10.800;2022-10-17T16:48:51;5.40;;;2.42;;
20138;SDS011;10230;51.502;10.800;2022-10-17T16:51:18;6.00;;;3.40;;
20138;SDS011;10230;51.502;10.800;2022-10-17T16:53:44;7.40;;;3.90;;
20138;SDS011;10230;51.502;10.800;2022-10-17T16:56:12;6.85;;;3.20;;
20138;SDS011;10230;51.502;10.800;2022-10-17T16:58:38;4.88;;;3.47;;
20138;SDS011;10230;51.502;10.800;2022-10-17T17:01:06;6.38;;;2.72;;
20138;SDS011;10230;51.502;10.800;2022-10-17T17:03:35;5.55;;;2.80;;
20138;SDS011;10230;51.502;10.800;2022-10-17T17:06:02;3.13;;;2.55;;
20138;SDS011;10230;51.502;10.800;2022-10-17T17:08:28;4.45;;;2.75;;
20138;SDS011;10230;51.502;10.800;2022-10-17T17:10:54;8.23;;;3.35;;
20138;SDS011;10230;51.502;10.800;2022-10-17T17:13:21;4.53;;;3.40;;
20138;SDS011;10230;51.502;10.800;2022-10-17T17:15:47;9.23;;;3.92;;
20138;SDS011;10230;51.502;10.800;2022-10-17T17:18:17;5.88;;;3.30;;
20138;SDS011;10230;51.502;10.800;2022-10-17T17:20:43;3.78;;;3.10;;
20138;SDS011;10230;51.502;10.800;2022-10-17T17:23:09;5.30;;;3.60;;
20138;SDS011;10230;51.502;10.800;2022-10-17T17:25:36;4.25;;;2.83;;
20138;SDS011;10230;51.502;10.800;2022-10-17T17:28:03;3.95;;;2.72;;
20138;SDS011;10230;51.502;10.800;2022-10-17T17:30:31;4.03;;;2.72;;
20138;SDS011;10230;51.502;10.800;2022-10-17T17:32:57;4.50;;;3.10;;
20138;SDS011;10230;51.502;10.800;2022-10-17T17:35:24;5.18;;;2.50;;
20138;SDS011;10230;51.502;10.800;2022-10-17T17:37:50;7.97;;;3.10;;
20138;SDS011;10230;51.502;10.800;2022-10-17T17:40:16;6.10;;;3.22;;
20138;SDS011;10230;51.502;10.800;2022-10-17T17:42:42;4.47;;;2.38;;
20138;SDS011;10230;51.502;10.800;2022-10-17T17:45:08;6.30;;;2.97;;
20138;SDS011;10230;51.502;10.800;2022-10-17T17:47:34;4.90;;;3.75;;
20138;SDS011;10230;51.502;10.800;2022-10-17T17:50:00;6.22;;;3.47;;
20138;SDS011;10230;51.502;10.800;2022-10-17T17:52:27;4.45;;;3.05;;
20138;SDS011;10230;51.502;10.800;2022-10-17T17:54:53;6.38;;;3.50;;
20138;SDS011;10230;51.502;10.800;2022-10-17T17:57:19;7.95;;;3.08;;
20138;SDS011;10230;51.502;10.800;2022-10-17T17:59:45;6.55;;;3.35;;
20138;SDS011;10230;51.502;10.800;2022-10-17T18:02:14;5.13;;;3.28;;
20138;SDS011;10230;51.502;10.800;2022-10-17T18:04:40;4.80;;;3.40;;
20138;SDS011;10230;51.502;10.800;2022-10-17T18:07:06;7.00;;;3.50;;
20138;SDS011;10230;51.502;10.800;2022-10-17T18:09:32;4.47;;;2.88;;
20138;SDS011;10230;51.502;10.800;2022-10-17T18:11:58;5.93;;;2.92;;
20138;SDS011;10230;51.502;10.800;2022-10-17T18:14:24;5.03;;;3.47;;
20138;SDS011;10230;51.502;10.800;2022-10-17T18:16:50;18.00;;;4.53;;
20138;SDS011;10230;51.502;10.800;2022-10-17T18:19:16;9.82;;;4.75;;
20138;SDS011;10230;51.502;10.800;2022-10-17T18:21:42;9.98;;;4.82;;
20138;SDS011;10230;51.502;10.800;2022-10-17T18:24:09;7.57;;;4.05;;
20138;SDS011;10230;51.502;10.800;2022-10-17T18:26:35;6.43;;;4.05;;
20138;SDS011;10230;51.502;10.800;2022-10-17T18:29:01;7.43;;;4.50;;
20138;SDS011;10230;51.502;10.800;2022-10-17T18:31:27;8.63;;;3.60;;
20138;SDS011;10230;51.502;10.800;2022-10-17T18:33:59;10.75;;;3.42;;
20138;SDS011;10230;51.502;10.800;2022-10-17T18:36:25;5.18;;;2.78;;
20138;SDS011;10230;51.502;10.800;2022-10-17T18:38:52;6.05;;;3.17;;